x

Smith Island, Wa (sisw1) Weather Station

5:00 - Tue 28th Mar 2017 All times are PDT. -7 hours from GMT.

  • Wind
    23mph, 25mph gusts
  • Ar Temp 50°f
  • Sea Pressure 1019.2mb
  • Smith Island, Wa
  • Smith Island, Wa

More Historic Weather Station data

Upgrade to MSW Pro to gain access to the past 30 days of data for over 8000 Wavebouys and Weather Stations around the globe.

Join Pro

Comparision Forecast

View Surf forecast
   
Ter 03/28 5:00 23 25 mph 1019.2mb 50f
4:00 23 25 mph 1019.6mb 50f
3:00 25 29 mph 1020mb 50f
2:00 26 29 mph 1020mb 50f
1:00 22 24 mph 1019.6mb 50f
12:00 22 24 mph 1019.8mb 50f
11:00 25 28 mph 1019.8mb 48f
10:00 30 33 mph 1019.6mb 46f
9:00 26 30 mph 1020.1mb 46f
8:00 30 34 mph 1019.7mb 46f
7:00 29 32 mph 1019.5mb 46f
6:00 25 29 mph 1020.1mb 46f
5:00 30 34 mph 1019.8mb 46f
4:00 31 34 mph 1020mb 46f
3:00 32 36 mph 1020mb 46f
2:00 24 28 mph 1021.4mb 46f
1:00 15 17 mph 1022.2mb 46f
12:00 6 7 mph 1022.2mb 47f
Seg 03/27 11:00 7 9 mph 1022.3mb 47f
10:00 6
mph
1022.1mb 47f
9:00 2
mph
1021.7mb 47f
8:00 2 3 mph 1021mb 47f
7:00 5 7 mph 1020.8mb 48f
6:00 6 7 mph 1020.4mb 48f
5:00 9
mph
1020.2mb 49f
4:00 14 15 mph 1020.1mb 49f
3:00 8 10 mph 1020.1mb 48f
2:00 3 6 mph 1019.3mb 51f
1:00 8 10 mph 1018.1mb 52f
12:00 11 13 mph 1018mb 50f
11:00 22 23 mph 1016.1mb 48f
10:00 21 22 mph 1015.7mb 47f
9:00 20 21 mph 1014.6mb 46f
8:00 21 23 mph 1013.6mb 46f
7:00 17 20 mph 1013.1mb 45f
6:00 16 18 mph 1012.4mb 45f
5:00 13 15 mph 1011.5mb 45f
4:00 10 11 mph 1011mb 45f
3:00 8 9 mph 1010.9mb 44f
2:00 6 7 mph 1010.4mb 45f
1:00 10 11 mph 1009.8mb 45f
12:00 15 16 mph 1008.9mb 46f
Dom 03/26 11:00 21 22 mph 1008.3mb 46f
10:00 21 23 mph 1007.7mb 46f
9:00 16 17 mph 1007.1mb 46f
8:00 18 21 mph 1006.7mb 46f
7:00 16 18 mph 1006.4mb 46f
6:00 24 26 mph 1006.3mb 46f
5:00 30 33 mph 1005.8mb 46f
4:00 33 39 mph 1005.4mb 46f
3:00 28 32 mph 1005.9mb 47f
2:00 29 31 mph 1006.5mb 47f
1:00 23 25 mph 1006.9mb 47f
12:00 25 29 mph 1007.7mb 45f
11:00 32 37 mph 1008.3mb 45f
10:00 30 34 mph 1008.7mb 45f
9:00 25 29 mph 1008.8mb 46f
8:00 29 31 mph 1009.1mb 46f
7:00 25 28 mph 1009.3mb 46f
6:00 17 20 mph 1010.2mb 46f
5:00 14 15 mph 1011.4mb 45f
4:00 15 16 mph 1012.5mb 45f
3:00 17 21 mph 1013.3mb 45f
2:00 10 11 mph 1014.7mb 45f
1:00 11 13 mph 1015.3mb 44f
12:00 7 8 mph 1016mb 43f
Sáb 03/25 11:00 5
mph
1016.5mb 44f
10:00 3
mph
1017mb 44f
9:00 2
mph
1017.5mb 45f
8:00 8 9 mph 1018mb 45f
7:00 6 9 mph 1018.4mb 45f
6:00 14 16 mph 1018.4mb 46f
5:00 11 15 mph 1018.7mb 46f
4:00 6 7 mph 1019mb 47f
3:00 2 3 mph 1019.1mb 48f
2:00 2
mph
1019.5mb 47f
1:00 3 5 mph 1019.7mb 47f
12:00 3 6 mph 1019.8mb 46f
11:00 6 8 mph 1019.3mb 47f
10:00 8 10 mph 1019.2mb 45f
9:00 5 7 mph 1018.4mb 45f
8:00 10 11 mph 1018.2mb 45f
7:00 13 15 mph 1017.4mb 45f
6:00 15 24 mph 1016.9mb 45f
5:00 9 11 mph 1016.8mb 45f
4:00 14 16 mph 1016.2mb 45f
3:00 8 10 mph 1016mb 45f
2:00 16 20 mph 1015.2mb 45f